createdAt,value
2022-08-25T00:01:10.945Z,5.65
2022-08-25T00:03:39.607Z,4.85
2022-08-25T00:06:09.959Z,5.40
2022-08-25T00:08:39.186Z,5.18
2022-08-25T00:11:07.544Z,5.40
2022-08-25T00:13:36.758Z,5.55
2022-08-25T00:16:04.720Z,5.60
2022-08-25T00:18:33.285Z,6.03
2022-08-25T00:21:01.123Z,6.07
2022-08-25T00:23:28.913Z,6.35
2022-08-25T00:25:56.689Z,6.35
2022-08-25T00:28:25.538Z,5.13
2022-08-25T00:30:54.805Z,5.72
2022-08-25T00:33:22.656Z,5.65
2022-08-25T00:35:50.467Z,6.13
2022-08-25T00:38:18.348Z,5.68
2022-08-25T00:40:46.426Z,6.65
2022-08-25T00:43:14.298Z,5.90
2022-08-25T00:45:42.099Z,6.05
2022-08-25T00:48:11.359Z,7.15
2022-08-25T00:50:40.320Z,5.70
2022-08-25T00:53:08.662Z,5.57
2022-08-25T00:55:38.182Z,6.55
2022-08-25T00:58:08.078Z,6.57
2022-08-25T01:00:37.595Z,6.10
2022-08-25T01:03:05.673Z,5.32
2022-08-25T01:05:35.100Z,5.43
2022-08-25T01:08:06.686Z,6.85
2022-08-25T01:10:35.297Z,5.93
2022-08-25T01:13:06.768Z,6.10
2022-08-25T01:15:42.728Z,5.82
2022-08-25T01:18:11.407Z,6.60
2022-08-25T01:20:40.818Z,5.63
2022-08-25T01:23:10.592Z,6.03
2022-08-25T01:25:43.101Z,6.10
2022-08-25T01:28:11.090Z,6.07
2022-08-25T01:30:39.241Z,6.50
2022-08-25T01:33:07.150Z,5.93
2022-08-25T01:35:35.016Z,5.85
2022-08-25T01:38:03.613Z,5.78
2022-08-25T01:40:33.380Z,6.05
2022-08-25T01:43:07.636Z,6.15
2022-08-25T01:45:35.710Z,6.00
2022-08-25T01:48:04.211Z,5.68
2022-08-25T01:50:32.446Z,7.10
2022-08-25T01:53:01.511Z,6.05
2022-08-25T01:55:29.378Z,6.70
2022-08-25T01:57:59.423Z,6.43
2022-08-25T02:00:27.340Z,5.47
2022-08-25T02:02:55.674Z,6.03
2022-08-25T02:05:23.966Z,5.85
2022-08-25T02:07:51.949Z,5.93
2022-08-25T02:10:19.795Z,7.07
2022-08-25T02:12:47.590Z,6.22
2022-08-25T02:15:16.906Z,6.75
2022-08-25T02:17:44.839Z,6.18
2022-08-25T02:20:12.645Z,5.88
2022-08-25T02:22:40.439Z,6.13
2022-08-25T02:25:12.917Z,5.78
2022-08-25T02:27:40.703Z,5.57
2022-08-25T02:30:09.003Z,6.00
2022-08-25T02:32:39.472Z,6.07
2022-08-25T02:35:08.718Z,6.47
2022-08-25T02:37:36.655Z,5.63
2022-08-25T02:40:06.020Z,6.38
2022-08-25T02:42:33.941Z,5.78
2022-08-25T02:45:01.709Z,5.70
2022-08-25T02:47:29.498Z,6.25
2022-08-25T02:49:58.701Z,6.13
2022-08-25T02:52:26.465Z,6.88
2022-08-25T02:54:54.757Z,5.82
2022-08-25T02:57:22.606Z,5.95
2022-08-25T02:59:51.636Z,6.25
2022-08-25T03:02:19.427Z,6.50
2022-08-25T03:04:47.530Z,6.03
2022-08-25T03:07:17.742Z,6.25
2022-08-25T03:09:46.133Z,6.30
2022-08-25T03:12:14.074Z,6.03
2022-08-25T03:14:42.357Z,5.53
2022-08-25T03:17:11.177Z,6.28
2022-08-25T03:19:39.061Z,6.25
2022-08-25T03:22:06.866Z,6.35
2022-08-25T03:24:35.993Z,5.65
2022-08-25T03:27:02.918Z,5.68
2022-08-25T03:29:32.613Z,5.47
2022-08-25T03:32:01.167Z,5.65
2022-08-25T03:34:30.656Z,5.85
2022-08-25T03:36:59.360Z,5.82
2022-08-25T03:39:27.471Z,5.80
2022-08-25T03:41:56.710Z,6.00
2022-08-25T03:44:24.505Z,5.53
2022-08-25T03:46:53.119Z,5.82
2022-08-25T03:49:22.671Z,5.70
2022-08-25T03:51:51.230Z,5.78
2022-08-25T03:54:19.965Z,6.22
2022-08-25T03:56:47.867Z,5.97
2022-08-25T03:59:17.560Z,6.40
2022-08-25T04:01:46.118Z,5.65
2022-08-25T04:04:15.458Z,6.70
2022-08-25T04:06:44.317Z,6.28
2022-08-25T04:09:12.557Z,5.53
2022-08-25T04:11:40.500Z,7.22
2022-08-25T04:14:15.819Z,6.63
2022-08-25T04:16:46.177Z,6.35
2022-08-25T04:19:14.421Z,11.80
2022-08-25T04:21:42.637Z,7.97
2022-08-25T04:24:12.231Z,6.40
2022-08-25T04:26:42.475Z,6.93
2022-08-25T04:29:11.454Z,6.70
2022-08-25T04:31:40.847Z,7.35
2022-08-25T04:34:28.353Z,7.63
2022-08-25T04:36:58.225Z,7.97
2022-08-25T04:39:26.018Z,7.45
2022-08-25T04:41:53.843Z,7.20
2022-08-25T04:44:21.670Z,6.50
2022-08-25T04:46:49.996Z,7.82
2022-08-25T04:49:19.342Z,7.35
2022-08-25T04:51:47.145Z,7.15
2022-08-25T04:54:17.183Z,6.63
2022-08-25T04:56:45.141Z,7.07
2022-08-25T04:59:15.359Z,6.72
2022-08-25T05:01:43.754Z,6.85
2022-08-25T05:04:14.651Z,6.88
2022-08-25T05:06:57.288Z,5.97
2022-08-25T05:09:25.424Z,5.88
2022-08-25T05:11:53.529Z,7.22
2022-08-25T05:14:25.685Z,6.18
2022-08-25T05:16:54.748Z,5.97
2022-08-25T05:19:24.006Z,5.85
2022-08-25T05:21:51.924Z,6.43
2022-08-25T05:24:22.369Z,5.90
2022-08-25T05:26:50.305Z,5.28
2022-08-25T05:29:18.437Z,18.88
2022-08-25T05:31:50.371Z,16.65
2022-08-25T05:34:19.666Z,8.68
2022-08-25T05:36:47.909Z,6.13
2022-08-25T05:39:16.027Z,7.10
2022-08-25T05:41:46.488Z,8.82
2022-08-25T05:44:17.917Z,7.00
2022-08-25T05:46:48.280Z,7.32
2022-08-25T05:49:16.034Z,7.40
2022-08-25T05:51:43.788Z,7.13
2022-08-25T05:54:11.555Z,8.70
2022-08-25T05:56:40.154Z,7.80
2022-08-25T05:59:09.703Z,6.82
2022-08-25T06:01:54.906Z,7.47
2022-08-25T06:04:22.713Z,7.53
2022-08-25T06:06:53.634Z,7.63
2022-08-25T06:09:21.663Z,7.00
2022-08-25T06:11:54.041Z,7.93
2022-08-25T06:14:24.944Z,7.88
2022-08-25T06:16:53.167Z,10.38
2022-08-25T06:19:23.323Z,8.05
2022-08-25T06:21:54.390Z,7.25
2022-08-25T06:24:22.243Z,7.57
2022-08-25T06:26:50.019Z,9.13
2022-08-25T06:29:17.960Z,8.57
2022-08-25T06:31:47.426Z,8.18
2022-08-25T06:34:15.210Z,7.07
2022-08-25T06:36:43.237Z,7.30
2022-08-25T06:39:16.734Z,6.95
2022-08-25T06:41:44.515Z,7.05
2022-08-25T06:44:12.815Z,6.22
2022-08-25T06:46:40.792Z,6.90
2022-08-25T06:49:14.328Z,5.35
2022-08-25T06:51:42.999Z,7.10
2022-08-25T06:54:11.259Z,6.95
2022-08-25T06:56:40.545Z,6.35
2022-08-25T06:59:10.021Z,7.10
2022-08-25T07:01:38.109Z,6.00
2022-08-25T07:04:11.817Z,6.47
2022-08-25T07:06:42.433Z,5.78
2022-08-25T07:09:10.893Z,6.53
2022-08-25T07:11:38.745Z,6.13
2022-08-25T07:14:07.281Z,5.60
2022-08-25T07:16:36.031Z,6.22
2022-08-25T07:19:04.880Z,5.50
2022-08-25T07:21:35.632Z,6.07
2022-08-25T07:24:07.285Z,5.82
2022-08-25T07:26:38.462Z,6.30
2022-08-25T07:29:08.213Z,5.93
2022-08-25T07:31:36.236Z,7.43
2022-08-25T07:34:23.244Z,5.90
2022-08-25T07:36:51.061Z,6.15
2022-08-25T07:39:22.154Z,7.40
2022-08-25T07:41:51.934Z,9.27
2022-08-25T07:44:20.739Z,7.43
2022-08-25T07:46:48.645Z,5.78
2022-08-25T07:49:18.346Z,5.95
2022-08-25T07:52:04.285Z,6.10
2022-08-25T07:54:35.095Z,6.68
2022-08-25T07:57:03.446Z,6.43
2022-08-25T07:59:39.514Z,6.03
2022-08-25T08:02:08.827Z,6.57
2022-08-25T08:04:37.323Z,5.20
2022-08-25T08:07:05.319Z,5.70
2022-08-25T08:09:41.440Z,5.18
2022-08-25T08:12:10.559Z,4.88
2022-08-25T08:14:39.598Z,6.10
2022-08-25T08:17:13.642Z,4.95
2022-08-25T08:19:45.017Z,5.32
2022-08-25T08:22:15.609Z,6.75
2022-08-25T08:24:54.578Z,5.28
2022-08-25T08:27:24.509Z,4.93
2022-08-25T08:29:52.419Z,5.85
2022-08-25T08:32:20.840Z,6.20
2022-08-25T08:35:01.045Z,4.93
2022-08-25T08:37:29.316Z,6.10
2022-08-25T08:40:03.462Z,5.45
2022-08-25T08:42:47.072Z,5.45
2022-08-25T08:45:23.580Z,4.82
2022-08-25T08:47:59.076Z,5.73
2022-08-25T08:50:33.125Z,4.47
2022-08-25T08:53:03.771Z,4.30
2022-08-25T08:55:37.399Z,4.65
2022-08-25T08:58:07.321Z,4.43
2022-08-25T09:00:40.559Z,4.32
2022-08-25T09:03:09.642Z,4.22
2022-08-25T09:05:44.908Z,3.90
2022-08-25T09:08:15.103Z,4.63
2022-08-25T09:11:01.407Z,3.92
2022-08-25T09:13:37.964Z,4.30
2022-08-25T09:16:34.203Z,4.85
2022-08-25T09:19:08.842Z,5.43
2022-08-25T09:21:38.669Z,4.55
2022-08-25T09:24:12.252Z,3.90
2022-08-25T09:26:46.527Z,4.57
2022-08-25T09:29:16.862Z,4.30
2022-08-25T09:31:45.868Z,3.95
2022-08-25T09:34:14.498Z,4.38
2022-08-25T09:36:42.903Z,4.72
2022-08-25T09:39:10.730Z,4.32
2022-08-25T09:41:45.534Z,4.63
2022-08-25T09:44:24.174Z,4.05
2022-08-25T09:47:01.840Z,4.50
2022-08-25T09:49:33.694Z,4.40
2022-08-25T09:52:16.473Z,4.63
2022-08-25T09:54:47.650Z,4.65
2022-08-25T09:57:30.079Z,4.50
2022-08-25T09:59:58.914Z,2.92
2022-08-25T10:02:28.539Z,3.10
2022-08-25T10:04:57.272Z,4.95
2022-08-25T10:07:27.643Z,4.07
2022-08-25T10:09:56.892Z,4.18
2022-08-25T10:12:27.946Z,4.30
2022-08-25T10:14:57.325Z,3.72
2022-08-25T10:17:27.797Z,3.70
2022-08-25T10:20:13.320Z,3.50
2022-08-25T10:22:41.897Z,3.92
2022-08-25T10:25:11.306Z,3.38
2022-08-25T10:27:42.546Z,3.85
2022-08-25T10:30:16.015Z,4.05
2022-08-25T10:32:57.485Z,4.22
2022-08-25T10:35:28.054Z,4.40
2022-08-25T10:38:02.994Z,3.65
2022-08-25T10:40:36.070Z,3.38
2022-08-25T10:43:08.055Z,3.72
2022-08-25T10:45:45.132Z,3.97
2022-08-25T10:48:20.090Z,4.03
2022-08-25T10:50:52.434Z,5.95
2022-08-25T10:53:24.815Z,4.68
2022-08-25T10:56:01.382Z,3.83
2022-08-25T10:58:34.812Z,3.60
2022-08-25T11:01:06.635Z,3.65
2022-08-25T11:03:44.984Z,4.82
2022-08-25T11:06:15.401Z,4.20
2022-08-25T11:08:45.845Z,4.32
2022-08-25T11:11:17.373Z,4.45
2022-08-25T11:13:47.453Z,4.47
2022-08-25T11:16:18.976Z,5.28
2022-08-25T11:18:52.602Z,5.18
2022-08-25T11:21:23.168Z,4.93
2022-08-25T11:23:54.939Z,5.43
2022-08-25T11:26:32.875Z,5.18
2022-08-25T11:29:05.862Z,4.00
2022-08-25T11:31:43.141Z,4.55
2022-08-25T11:34:14.517Z,4.45
2022-08-25T11:36:45.859Z,5.75
2022-08-25T11:39:16.678Z,4.10
2022-08-25T11:41:51.520Z,3.92
2022-08-25T11:44:39.322Z,4.78
2022-08-25T11:47:35.511Z,3.67
2022-08-25T11:50:04.244Z,3.95
2022-08-25T11:52:48.129Z,3.95
2022-08-25T11:55:17.884Z,4.10
2022-08-25T11:57:53.604Z,4.45
2022-08-25T12:00:38.646Z,3.83
2022-08-25T12:03:21.437Z,3.83
2022-08-25T12:06:14.720Z,3.83
2022-08-25T12:08:50.911Z,3.60
2022-08-25T12:11:33.594Z,3.30
2022-08-25T12:14:09.685Z,3.95
2022-08-25T12:16:43.650Z,3.22
2022-08-25T12:19:25.788Z,3.00
2022-08-25T12:21:55.571Z,3.90
2022-08-25T12:24:26.277Z,4.05
2022-08-25T12:26:57.128Z,3.80
2022-08-25T12:29:31.195Z,3.28
2022-08-25T12:32:09.387Z,3.20
2022-08-25T12:34:46.419Z,3.55
2022-08-25T12:37:17.325Z,3.47
2022-08-25T12:39:47.031Z,3.58
2022-08-25T12:42:26.054Z,4.38
2022-08-25T12:45:10.123Z,3.20
2022-08-25T12:47:41.858Z,3.67
2022-08-25T12:50:36.234Z,3.75
2022-08-25T12:53:16.899Z,3.50
2022-08-25T12:55:47.666Z,3.55
2022-08-25T12:58:17.082Z,3.72
2022-08-25T13:01:09.295Z,3.22
2022-08-25T13:03:49.754Z,3.00
2022-08-25T13:06:28.113Z,3.95
2022-08-25T13:09:10.845Z,3.65
2022-08-25T13:11:43.821Z,3.67
2022-08-25T13:14:17.893Z,3.13
2022-08-25T13:16:53.246Z,3.20
2022-08-25T13:19:21.678Z,3.55
2022-08-25T13:21:50.477Z,3.67
2022-08-25T13:24:25.212Z,2.88
2022-08-25T13:26:55.933Z,3.10
2022-08-25T13:29:25.565Z,3.15
2022-08-25T13:31:56.541Z,3.05
2022-08-25T13:34:35.073Z,4.00
2022-08-25T13:37:24.398Z,3.55
2022-08-25T13:39:56.417Z,4.07
2022-08-25T13:42:28.960Z,3.40
2022-08-25T13:44:57.394Z,3.53
2022-08-25T13:47:34.216Z,3.20
2022-08-25T13:50:16.079Z,3.07
2022-08-25T13:52:47.853Z,3.83
2022-08-25T13:55:22.037Z,3.47
2022-08-25T13:57:57.501Z,3.10
2022-08-25T14:00:30.866Z,3.05
2022-08-25T14:03:00.464Z,6.30
2022-08-25T14:05:33.612Z,3.60
2022-08-25T14:08:16.136Z,3.53
2022-08-25T14:11:03.200Z,3.25
2022-08-25T14:13:34.913Z,3.47
2022-08-25T14:16:10.889Z,3.72
2022-08-25T14:18:39.563Z,3.28
2022-08-25T14:21:10.925Z,4.50
2022-08-25T14:23:39.737Z,3.67
2022-08-25T14:26:07.593Z,2.95
2022-08-25T14:28:37.207Z,3.50
2022-08-25T14:31:08.407Z,3.50
2022-08-25T14:33:38.810Z,3.60
2022-08-25T14:36:08.253Z,3.67
2022-08-25T14:38:38.934Z,3.67
2022-08-25T14:43:38.402Z,4.30
2022-08-25T14:46:10.155Z,3.45
2022-08-25T14:48:44.680Z,3.42
2022-08-25T14:51:13.257Z,3.47
2022-08-25T14:53:41.372Z,3.20
2022-08-25T14:56:10.507Z,11.40
2022-08-25T14:58:48.455Z,4.45
2022-08-25T15:01:28.721Z,4.25
2022-08-25T15:03:59.475Z,3.47
2022-08-25T15:06:27.938Z,3.22
2022-08-25T15:09:11.618Z,3.67
2022-08-25T15:11:41.818Z,3.30
2022-08-25T15:14:12.148Z,3.72
2022-08-25T15:16:42.751Z,3.60
2022-08-25T15:19:14.563Z,3.78
2022-08-25T15:21:44.484Z,3.40
2022-08-25T15:24:13.130Z,4.00
2022-08-25T15:29:17.067Z,4.13
2022-08-25T15:31:45.372Z,3.30
2022-08-25T15:34:14.541Z,3.25
2022-08-25T15:36:42.710Z,4.07
2022-08-25T15:39:10.913Z,3.67
2022-08-25T15:41:39.032Z,3.90
2022-08-25T15:44:07.823Z,3.60
2022-08-25T15:46:37.835Z,3.55
2022-08-25T15:49:07.953Z,5.70
2022-08-25T15:51:36.448Z,3.95
2022-08-25T15:54:04.470Z,4.75
2022-08-25T15:56:32.415Z,4.18
2022-08-25T15:59:00.431Z,4.28
2022-08-25T16:01:30.463Z,4.15
2022-08-25T16:04:00.126Z,4.45
2022-08-25T16:06:27.988Z,4.75
2022-08-25T16:08:55.812Z,4.15
2022-08-25T16:11:24.695Z,4.22
2022-08-25T16:13:53.319Z,4.35
2022-08-25T16:16:22.135Z,4.13
2022-08-25T16:18:50.186Z,3.83
2022-08-25T16:21:29.400Z,4.07
2022-08-25T16:23:58.844Z,4.47
2022-08-25T16:26:27.261Z,4.05
2022-08-25T16:28:56.019Z,4.57
2022-08-25T16:31:24.614Z,5.40
2022-08-25T16:33:56.109Z,4.57
2022-08-25T16:36:28.046Z,4.68
2022-08-25T16:38:57.574Z,4.53
2022-08-25T16:41:27.214Z,4.55
2022-08-25T16:43:57.051Z,4.47
2022-08-25T16:46:24.834Z,4.95
2022-08-25T16:48:54.940Z,6.05
2022-08-25T16:51:25.613Z,5.47
2022-08-25T16:54:22.026Z,4.75
2022-08-25T16:56:53.726Z,4.82
2022-08-25T16:59:23.782Z,4.60
2022-08-25T17:01:52.406Z,4.47
2022-08-25T17:04:21.201Z,3.85
2022-08-25T17:07:00.140Z,4.50
2022-08-25T17:09:31.763Z,3.55
2022-08-25T17:11:59.739Z,4.00
2022-08-25T17:14:27.653Z,4.70
2022-08-25T17:16:55.952Z,7.28
2022-08-25T17:19:27.051Z,4.75
2022-08-25T17:21:55.874Z,3.85
2022-08-25T17:24:29.662Z,4.88
2022-08-25T17:27:02.023Z,4.47
2022-08-25T17:29:30.147Z,4.55
2022-08-25T17:31:59.194Z,5.32
2022-08-25T17:34:27.567Z,4.75
2022-08-25T17:36:55.781Z,4.90
2022-08-25T17:39:25.141Z,4.28
2022-08-25T17:41:53.543Z,4.30
2022-08-25T17:44:23.186Z,4.68
2022-08-25T17:46:52.015Z,5.15
2022-08-25T17:49:21.445Z,5.00
2022-08-25T17:51:50.982Z,4.07
2022-08-25T17:54:19.784Z,4.75
2022-08-25T17:56:48.661Z,4.85
2022-08-25T17:59:16.857Z,5.22
2022-08-25T18:01:47.013Z,5.13
2022-08-25T18:04:17.886Z,4.55
2022-08-25T18:06:47.602Z,4.65
2022-08-25T18:09:15.496Z,5.30
2022-08-25T18:11:43.551Z,4.88
2022-08-25T18:14:12.272Z,4.38
2022-08-25T18:16:40.841Z,4.15
2022-08-25T18:19:12.993Z,5.32
2022-08-25T18:21:43.338Z,4.50
2022-08-25T18:24:13.288Z,4.50
2022-08-25T18:26:41.516Z,4.25
2022-08-25T18:29:12.539Z,4.78
2022-08-25T18:31:40.880Z,5.25
2022-08-25T18:34:11.851Z,4.30
2022-08-25T18:36:41.752Z,5.38
2022-08-25T18:39:28.745Z,4.40
2022-08-25T18:42:01.190Z,4.78
2022-08-25T18:44:29.323Z,10.68
2022-08-25T18:46:58.421Z,5.03
2022-08-25T18:49:28.858Z,5.70
2022-08-25T18:51:57.136Z,5.95
2022-08-25T18:54:25.061Z,6.18
2022-08-25T18:56:54.732Z,5.35
2022-08-25T18:59:23.671Z,3.85
2022-08-25T19:01:52.729Z,4.55
2022-08-25T19:04:20.863Z,5.70
2022-08-25T19:06:57.901Z,5.30
2022-08-25T19:09:26.217Z,4.40
2022-08-25T19:11:54.766Z,5.07
2022-08-25T19:14:22.678Z,5.10
2022-08-25T19:16:51.802Z,4.22
2022-08-25T19:19:20.555Z,4.65
2022-08-25T19:21:48.484Z,4.53
2022-08-25T19:24:20.669Z,5.70
2022-08-25T19:26:52.599Z,4.60
2022-08-25T19:29:22.904Z,4.72
2022-08-25T19:31:51.126Z,4.80
2022-08-25T19:34:20.350Z,5.07
2022-08-25T19:36:49.647Z,4.53
2022-08-25T19:39:17.486Z,4.50
2022-08-25T19:41:48.054Z,4.53
2022-08-25T19:44:16.460Z,5.13
2022-08-25T19:46:45.333Z,4.75
2022-08-25T19:49:14.515Z,4.78
2022-08-25T19:51:44.072Z,4.65
2022-08-25T19:54:13.169Z,4.25
2022-08-25T19:56:53.786Z,4.45
2022-08-25T19:59:24.743Z,4.63
2022-08-25T20:01:52.719Z,5.10
2022-08-25T20:04:21.029Z,4.82
2022-08-25T20:06:52.257Z,4.50
2022-08-25T20:09:35.480Z,6.47
2022-08-25T20:12:07.110Z,5.45
2022-08-25T20:14:36.660Z,4.53
2022-08-25T20:17:23.009Z,5.80
2022-08-25T20:19:52.364Z,5.68
2022-08-25T20:22:24.957Z,4.80
2022-08-25T20:24:56.168Z,4.55
2022-08-25T20:27:26.956Z,4.72
2022-08-25T20:29:56.055Z,4.80
2022-08-25T20:32:24.547Z,4.25
2022-08-25T20:34:53.800Z,4.15
2022-08-25T20:37:25.803Z,4.88
2022-08-25T20:39:55.027Z,4.68
2022-08-25T20:42:22.990Z,4.60
2022-08-25T20:44:51.055Z,4.82
2022-08-25T20:47:21.175Z,5.40
2022-08-25T20:49:50.363Z,4.68
2022-08-25T20:52:18.831Z,5.25
2022-08-25T20:54:49.372Z,4.68
2022-08-25T20:57:18.554Z,4.88
2022-08-25T20:59:52.751Z,4.40
2022-08-25T21:02:23.065Z,4.65
2022-08-25T21:04:51.186Z,4.75
2022-08-25T21:07:19.020Z,5.78
2022-08-25T21:09:47.338Z,6.07
2022-08-25T21:12:15.244Z,5.50
2022-08-25T21:14:45.040Z,4.43
2022-08-25T21:17:13.249Z,4.85
2022-08-25T21:19:42.791Z,5.60
2022-08-25T21:22:10.991Z,5.43
2022-08-25T21:24:39.102Z,5.78
2022-08-25T21:27:07.173Z,4.75
2022-08-25T21:29:35.010Z,5.10
2022-08-25T21:32:03.445Z,4.80
2022-08-25T21:34:31.808Z,4.90
2022-08-25T21:37:01.095Z,5.57
2022-08-25T21:39:32.076Z,4.47
2022-08-25T21:42:00.562Z,4.75
2022-08-25T21:44:29.195Z,5.82
2022-08-25T21:46:57.442Z,5.22
2022-08-25T21:49:25.914Z,5.05
2022-08-25T21:52:00.324Z,6.13
2022-08-25T21:54:30.254Z,5.70
2022-08-25T21:57:00.076Z,5.47
2022-08-25T21:59:28.773Z,4.88
2022-08-25T22:01:57.534Z,6.15
2022-08-25T22:04:25.850Z,5.35
2022-08-25T22:06:53.796Z,5.72
2022-08-25T22:09:22.451Z,5.28
2022-08-25T22:11:54.593Z,6.35
2022-08-25T22:14:23.472Z,6.03
2022-08-25T22:16:52.100Z,5.50
2022-08-25T22:19:21.637Z,5.10
2022-08-25T22:21:51.695Z,5.55
2022-08-25T22:24:19.878Z,5.55
2022-08-25T22:26:49.113Z,5.25
2022-08-25T22:29:25.265Z,5.97
2022-08-25T22:31:53.970Z,6.22
2022-08-25T22:34:31.686Z,5.93
2022-08-25T22:37:00.253Z,5.85
2022-08-25T22:39:28.591Z,5.85
2022-08-25T22:41:56.566Z,6.38
2022-08-25T22:44:26.351Z,5.97
2022-08-25T22:46:54.159Z,5.80
2022-08-25T22:49:22.016Z,5.32
2022-08-25T22:51:49.994Z,5.40
2022-08-25T22:54:18.948Z,5.30
2022-08-25T22:56:46.823Z,5.00
2022-08-25T22:59:15.453Z,6.00
2022-08-25T23:01:46.034Z,5.80
2022-08-25T23:04:14.791Z,5.57
2022-08-25T23:06:42.998Z,5.25
2022-08-25T23:09:11.806Z,5.85
2022-08-25T23:11:39.694Z,6.05
2022-08-25T23:14:11.187Z,5.43
2022-08-25T23:16:41.747Z,6.57
2022-08-25T23:19:11.393Z,5.40
2022-08-25T23:21:58.657Z,5.22
2022-08-25T23:24:29.135Z,5.82
2022-08-25T23:26:58.368Z,6.05
2022-08-25T23:29:27.888Z,5.82
2022-08-25T23:31:56.321Z,5.50
2022-08-25T23:34:26.022Z,5.40
2022-08-25T23:36:54.004Z,5.90
2022-08-25T23:39:22.397Z,6.18
2022-08-25T23:41:50.573Z,5.25
2022-08-25T23:44:18.968Z,5.13
2022-08-25T23:46:47.573Z,4.78
2022-08-25T23:49:18.536Z,5.22
2022-08-25T23:51:48.807Z,4.53
2022-08-25T23:54:17.126Z,4.88
2022-08-25T23:56:51.963Z,4.85
2022-08-25T23:59:20.618Z,5.40
